Detalii statie SOPEMA [00001CFB]

Toti senzorii

Date Temperatura solului [C]Precipitatii [mm]Voltaj baterie [mV]Leaf Wetness [Min]HC Air temperature [C]HC Relative humidity [%]Punctul de roua [C]
medieminmaxsumaultimatimpmedieminmaxmediemediemin
2018-10-13 16:00:00 0 7128 20.22 19.96 20.6 27.28 0.5 0
2018-10-13 17:00:00 0 7030 19.41 18.5 19.97 24.63 -1.6 -2.3
2018-10-13 18:00:00 0 6922 16.76 15.71 18.23 28.56 -1.7 -2.2
2018-10-13 19:00:00 0 6884 14.24 12.64 15.68 34.41 -1.3 -1.6
2018-10-13 20:00:00 0 6884 11.78 10.97 12.81 42.95 -0.5 -1.2
2018-10-13 21:00:00 0 6884 11.76 10.7 12.95 44.83 0 -0.2
2018-10-13 22:00:00 0 6874 8.81 8.5 9.17 51.82 -0.5 -1.2
2018-10-13 23:00:00 0 6884 6.75 5.21 8.5 53.89 -2 -2.5
2018-10-14 00:00:00 0 6864 7.45 6.14 8.22 48.74 -2.7 -3.4
2018-10-14 01:00:00 0 6864 7.5 6.92 7.9 46.3 -3.3 -3.7
2018-10-14 02:00:00 0 6874 7.07 6.49 7.87 49.39 -2.9 -3.1
2018-10-14 03:00:00 0 6844 7.82 7.73 7.96 48.8 -2.2 -2.5
2018-10-14 04:00:00 0 6854 6.69 5.54 7.74 53.17 -2.2 -2.4
2018-10-14 05:00:00 0 6834 5.31 4.89 5.83 59.13 -2 -2.4
2018-10-14 06:00:00 0 6806 5.35 4.11 5.97 60.74 -1.6 -1.8
2018-10-14 07:00:00 0 6806 4.83 4.07 6.12 64.41 -1.3 -1.7
2018-10-14 08:00:00 0 6932 8.08 6.56 9.86 53.32 -0.9 -1.3
2018-10-14 09:00:00 0 7246 11.22 9.99 12.82 47.53 0.4 -0.5
2018-10-14 10:00:00 0 7284 14.24 13.36 15.67 46.33 2.6 1.3
2018-10-14 11:00:00 0 7254 17.06 15.74 18.13 46.94 5.4 4.7
2018-10-14 12:00:00 0 7246 19.11 18.24 19.95 40.8 5.2 4.8
2018-10-14 13:00:00 0 7274 20.42 19.85 21.1 37.31 5.1 4.9
2018-10-14 14:00:00 0 7246 21.69 21.27 22 35.77 5.6 5.2
2018-10-14 15:00:00 0 7236 21.92 21.58 22.1 36.27 6.1 5.8
2018-10-14 16:00:00 0 7128 21.78 21.45 22.17 36.94 6.1 5.7
2018-10-14 17:00:00 0 6992 20.59 19.57 21.47 40.65 6.5 6.3
2018-10-14 18:00:00 0 6914 18.04 17.39 19.33 44.46 5.5 4.2
2018-10-14 19:00:00 0 6904 16.63 15.74 17.5 43.33 3.9 3.7
2018-10-14 20:00:00 0 6884 15.2 14.29 15.74 45.54 3.3 2.8
2018-10-14 21:00:00 0 6894 12.44 11.42 15.18 53.73 3 2.8
2018-10-14 22:00:00 0 6874 8.95 7.25 11.17 64.7 2.4 1.9
2018-10-14 23:00:00 0 6884 7.17 6.08 8.49 70.3 1.9 1.5
2018-10-15 00:00:00 0 6874 8.6 8.39 9.09 65.89 2.4 2.2
2018-10-15 01:00:00 0 6864 8.74 8.35 9.09 65.87 2.5 2.3
2018-10-15 02:00:00 0 6874 7.62 6.87 8.22 69.02 2.1 1.9
2018-10-15 03:00:00 0 6844 7.37 7.04 7.64 71.02 2.3 2.1
2018-10-15 04:00:00 0 6854 6.76 6.48 7.14 74.16 2.3 2.2
2018-10-15 05:00:00 0 6834 7.23 6.71 7.68 74.12 2.7 2.6
2018-10-15 06:00:00 0 6806 6.15 5.36 6.67 78.72 2.6 2.4
2018-10-15 07:00:00 0 6796 5.49 5.22 5.95 82.85 2.7 2.6
2018-10-15 08:00:00 0 6942 7.99 6.19 10.35 73.18 3.3 2.7
2018-10-15 09:00:00 0 7226 12.2 10.63 13.84 57.5 3.8 3.4
2018-10-15 10:00:00 0 7274 15.71 14.09 16.77 52.41 5.8 4.6
2018-10-15 11:00:00 0 7254 17.89 16.96 19.26 48.13 6.5 6.3
2018-10-15 12:00:00 0 7274 20.28 19.59 20.73 40.75 6.3 6.1
2018-10-15 13:00:00 0 7274 21.79 21.17 22.36 36.2 5.9 5.7
2018-10-15 14:00:00 0 7246 22.85 22.18 23.26 32.8 5.3 4.7
2018-10-15 15:00:00 0 7216 23.35 22.9 23.65 29.26 4.2 3.4